YMML/MEL METAR and TAF weather

Enter ICAO airport designator
Station Type Date Time Source
YMML METAR 2019/11/14 04:00 UTC NOAA

YMML 140400Z 27011KT 9999 FEW045 SCT052 BKN260 21/08 Q1013


Station Type Date Time Source
YMML Decoded METAR 2019/11/14 04:00 UTC NOAA

Melbourne Airport, Australia (YMML) 37-40S 144-50E 141M
Nov 13, 2019 - 11:00 PM EST / 2019.11.14 0400 UTC
Wind: from the W (270 degrees) at 13 MPH (11 KT):0
Visibility: greater than 7 mile(s):0
Sky conditions: mostly cloudy
Temperature: 69 F (21 C)
Dew Point: 46 F (8 C)
Relative Humidity: 43%
Pressure (altimeter): 29.91 in. Hg (1013 hPa)
ob: YMML 140400Z 27011KT 9999 FEW045 SCT052 BKN260 21/08 Q1013
cycle: 4

Station Type Date Time Source
YMML TAF 2019/11/13 22:19 UTC NOAA

TAF
AMD YMML 132215Z 1322/1500 28014KT 9999 SCT020 BKN030
FM140200 29012KT 9999 FEW030 BKN040

Example: see airport list